Time;durP1;ratioP1;P1;durP2;ratioP2;P2;SDS_P1;SDS_P2;PMS_P1;PMS_P2;Temp;Humidity;BMP_temperature;BMP_pressure;BME280_temperature;BME280_humidity;BME280_pressure;Samples;Min_cycle;Max_cycle;Signal;HPM_P1;HPM_P2
2023/08/23 00:00:47;;;;;;;;;;;26.00;59.90;;;;;;1582998;73;1953;-55
2023/08/23 00:02:49;;;;;;;;;;;25.90;59.40;;;;;;1579568;73;1452;-54
2023/08/23 00:04:51;;;;;;;;;;;26.00;60.00;;;;;;1583803;75;648;-54
2023/08/23 00:06:53;;;;;;;;;;;25.90;59.40;;;;;;1579661;75;737;-56
2023/08/23 00:08:54;;;;;;;;;;;25.90;59.40;;;;;;1570646;73;1137;-56
2023/08/23 00:10:56;;;;;;;;;;;25.90;59.40;;;;;;1578502;74;859;-54
2023/08/23 00:12:58;;;;;;;;;;;25.90;59.40;;;;;;1576845;75;723;-56
2023/08/23 00:15:00;;;;;;;;;;;25.90;59.40;;;;;;1577918;75;804;-57
2023/08/23 00:17:02;;;;;;;;;;;25.90;59.40;;;;;;1565874;75;725;-55
2023/08/23 00:19:04;;;;;;;;;;;25.90;59.30;;;;;;1573225;74;1139;-54
2023/08/23 00:21:06;;;;;;;;;;;25.90;59.30;;;;;;1564694;75;1927;-54
2023/08/23 00:23:07;;;;;;;;;;;25.90;59.30;;;;;;1578078;75;659;-54
2023/08/23 00:25:09;;;;;;;;;;;25.90;59.30;;;;;;1569534;75;851;-55
2023/08/23 00:27:11;;;;;;;;;;;25.90;59.30;;;;;;1578187;74;726;-54
2023/08/23 00:29:13;;;;;;;;;;;26.00;59.90;;;;;;1575399;74;1147;-54
2023/08/23 00:31:15;;;;;;;;;;;25.90;59.40;;;;;;1584635;74;795;-56
2023/08/23 00:33:17;;;;;;;;;;;26.00;59.90;;;;;;1570024;75;811;-55
2023/08/23 00:35:19;;;;;;;;;;;25.90;59.30;;;;;;1568748;75;660;-55
2023/08/23 00:37:21;;;;;;;;;;;25.90;59.30;;;;;;1572145;75;737;-52
2023/08/23 00:39:24;;;;;;;;;;;25.90;59.40;;;;;;1565930;75;1161;-57
2023/08/23 00:41:25;;;;;;;;;;;25.90;59.30;;;;;;1574476;74;678;-53
2023/08/23 00:43:27;;;;;;;;;;;25.90;59.40;;;;;;1573213;75;789;-53
2023/08/23 00:45:29;;;;;;;;;;;25.90;59.40;;;;;;1573077;75;810;-57
2023/08/23 00:47:31;;;;;;;;;;;25.90;59.30;;;;;;1569708;75;702;-53
2023/08/23 00:49:34;;;;;;;;;;;25.90;59.30;;;;;;1564401;74;1163;-57
2023/08/23 00:51:36;;;;;;;;;;;25.90;59.40;;;;;;1572402;75;751;-54
2023/08/23 00:53:38;;;;;;;;;;;25.90;59.40;;;;;;1584177;75;749;-56
2023/08/23 00:55:40;;;;;;;;;;;25.90;59.40;;;;;;1573084;75;726;-56
2023/08/23 00:57:41;;;;;;;;;;;25.90;59.40;;;;;;1584326;74;776;-55
2023/08/23 00:59:43;;;;;;;;;;;25.90;59.40;;;;;;1581907;73;1947;-56
2023/08/23 01:01:45;;;;;;;;;;;25.90;59.40;;;;;;1580847;75;662;-57
2023/08/23 01:03:49;;;;;;;;;;;25.90;59.40;;;;;;1580234;75;746;-54
2023/08/23 01:06:02;;;;;;;;;;;25.90;59.40;;;;;;1567945;75;742;-56
2023/08/23 01:08:05;;;;;;;;;;;25.90;59.40;;;;;;1580930;75;675;-56
2023/08/23 01:10:15;;;;;;;;;;;25.90;59.40;;;;;;1569916;74;1464;-57
2023/08/23 01:12:29;;;;;;;;;;;25.90;59.30;;;;;;1564721;74;639;-57
2023/08/23 01:14:33;;;;;;;;;;;25.90;59.30;;;;;;1566765;75;758;-56
2023/08/23 01:16:35;;;;;;;;;;;25.90;59.30;;;;;;1566303;75;1740;-57
2023/08/23 01:18:37;;;;;;;;;;;25.90;59.40;;;;;;1568169;75;739;-57
2023/08/23 01:20:38;;;;;;;;;;;25.90;59.40;;;;;;1567677;74;1960;-55
2023/08/23 01:22:42;;;;;;;;;;;25.90;59.40;;;;;;1565567;75;1102;-54
2023/08/23 01:24:43;;;;;;;;;;;25.90;59.40;;;;;;1573658;75;722;-55
2023/08/23 01:26:45;;;;;;;;;;;25.90;59.30;;;;;;1575232;74;708;-54
2023/08/23 01:28:50;;;;;;;;;;;25.90;59.30;;;;;;1574022;75;781;-54
2023/08/23 01:30:51;;;;;;;;;;;25.90;59.30;;;;;;1581753;73;1630;-56
2023/08/23 01:32:54;;;;;;;;;;;25.90;59.30;;;;;;1573881;75;771;-57
2023/08/23 01:34:57;;;;;;;;;;;25.90;59.30;;;;;;1572699;75;1924;-54
2023/08/23 01:36:59;;;;;;;;;;;25.90;59.30;;;;;;1570192;75;708;-57
2023/08/23 01:39:01;;;;;;;;;;;25.90;59.20;;;;;;1582304;75;1117;-57
2023/08/23 01:41:03;;;;;;;;;;;25.90;59.30;;;;;;1570234;75;1942;-57
2023/08/23 01:43:04;;;;;;;;;;;25.90;59.30;;;;;;1580728;74;687;-55
2023/08/23 01:45:07;;;;;;;;;;;25.90;59.30;;;;;;1561975;75;731;-54
2023/08/23 01:47:09;;;;;;;;;;;25.80;59.30;;;;;;1579767;75;782;-56
2023/08/23 01:49:11;;;;;;;;;;;25.90;59.20;;;;;;1575603;73;1146;-56
2023/08/23 01:51:13;;;;;;;;;;;25.90;59.20;;;;;;1580306;75;714;-54
2023/08/23 01:53:15;;;;;;;;;;;25.80;59.20;;;;;;1573379;75;740;-57
2023/08/23 01:55:20;;;;;;;;;;;25.80;59.20;;;;;;1578830;74;1585;-57
2023/08/23 01:57:22;;;;;;;;;;;25.90;59.20;;;;;;1576417;74;839;-57
2023/08/23 01:59:24;;;;;;;;;;;25.90;59.30;;;;;;1574658;74;1128;-57
2023/08/23 02:01:26;;;;;;;;;;;25.90;59.30;;;;;;1568385;75;1957;-57
2023/08/23 02:03:28;;;;;;;;;;;25.80;59.20;;;;;;1577958;75;739;-54
2023/08/23 02:05:32;;;;;;;;;;;25.80;59.30;;;;;;1572952;75;771;-56
2023/08/23 02:07:34;;;;;;;;;;;25.90;59.30;;;;;;1584613;75;772;-56
2023/08/23 02:09:36;;;;;;;;;;;25.90;59.30;;;;;;1571366;73;1559;-54
2023/08/23 02:11:38;;;;;;;;;;;25.90;59.30;;;;;;1581792;73;805;-54
2023/08/23 02:13:40;;;;;;;;;;;25.80;59.40;;;;;;1580589;75;790;-57
2023/08/23 02:15:43;;;;;;;;;;;25.90;59.40;;;;;;1567292;75;784;-57
2023/08/23 02:17:45;;;;;;;;;;;25.80;59.30;;;;;;1568094;75;728;-57
2023/08/23 02:19:47;;;;;;;;;;;25.90;59.30;;;;;;1560360;74;1135;-54
2023/08/23 02:21:49;;;;;;;;;;;25.80;59.30;;;;;;1570791;75;1934;-55
2023/08/23 02:23:51;;;;;;;;;;;25.80;59.30;;;;;;1575898;74;1526;-55
2023/08/23 02:25:53;;;;;;;;;;;25.90;59.30;;;;;;1579115;75;747;-56
2023/08/23 02:27:57;;;;;;;;;;;25.80;59.30;;;;;;1572184;75;695;-57
2023/08/23 02:29:58;;;;;;;;;;;25.80;59.30;;;;;;1570518;74;1529;-55
2023/08/23 02:32:00;;;;;;;;;;;25.80;59.30;;;;;;1580894;75;812;-54
2023/08/23 02:34:02;;;;;;;;;;;25.80;59.30;;;;;;1577060;75;835;-54
2023/08/23 02:36:04;;;;;;;;;;;25.80;59.30;;;;;;1570827;75;707;-57
2023/08/23 02:38:08;;;;;;;;;;;25.80;59.20;;;;;;1584757;73;1600;-57
2023/08/23 02:40:10;;;;;;;;;;;25.80;59.20;;;;;;1574409;75;1922;-54
2023/08/23 02:42:12;;;;;;;;;;;25.80;59.20;;;;;;1569065;74;705;-56
2023/08/23 02:44:13;;;;;;;;;;;25.80;59.20;;;;;;1579416;75;772;-56
2023/08/23 02:46:15;;;;;;;;;;;25.80;59.30;;;;;;1564426;75;758;-55
2023/08/23 02:48:17;;;;;;;;;;;25.80;59.40;;;;;;1574319;75;771;-54
2023/08/23 02:50:19;;;;;;;;;;;25.90;59.40;;;;;;1571838;75;1151;-57
2023/08/23 02:52:21;;;;;;;;;;;25.80;59.40;;;;;;1583944;75;1640;-57
2023/08/23 02:54:23;;;;;;;;;;;25.80;59.40;;;;;;1579771;75;785;-58
2023/08/23 02:56:25;;;;;;;;;;;25.80;59.40;;;;;;1575458;74;726;-55
2023/08/23 02:58:26;;;;;;;;;;;25.80;59.40;;;;;;1578389;75;768;-56
2023/08/23 03:00:28;;;;;;;;;;;25.80;59.60;;;;;;1570406;75;1946;-56
2023/08/23 03:02:32;;;;;;;;;;;25.70;59.50;;;;;;1567675;75;707;-54
2023/08/23 03:04:34;;;;;;;;;;;25.70;59.60;;;;;;1579775;75;2011;-55
2023/08/23 03:06:36;;;;;;;;;;;25.80;59.50;;;;;;1576941;75;1432;-57
2023/08/23 03:08:37;;;;;;;;;;;25.80;59.50;;;;;;1566521;75;734;-57
2023/08/23 03:10:39;;;;;;;;;;;25.70;59.50;;;;;;1567791;75;1139;-56
2023/08/23 03:12:41;;;;;;;;;;;25.80;59.60;;;;;;1566027;75;675;-57
2023/08/23 03:14:43;;;;;;;;;;;25.80;59.50;;;;;;1575942;75;786;-54
2023/08/23 03:16:45;;;;;;;;;;;25.70;59.60;;;;;;1565050;75;719;-56
2023/08/23 03:18:47;;;;;;;;;;;25.80;59.60;;;;;;1575950;74;705;-56
2023/08/23 03:20:49;;;;;;;;;;;25.80;59.60;;;;;;1575539;73;1943;-55
2023/08/23 03:22:51;;;;;;;;;;;25.70;59.50;;;;;;1578388;75;796;-54
2023/08/23 03:24:53;;;;;;;;;;;25.70;59.50;;;;;;1573091;75;734;-57
2023/08/23 03:26:55;;;;;;;;;;;25.80;59.60;;;;;;1579243;74;715;-55
2023/08/23 03:28:56;;;;;;;;;;;25.70;59.60;;;;;;1581024;75;1192;-56
2023/08/23 03:31:04;;;;;;;;;;;25.80;59.60;;;;;;1577501;75;754;-54
2023/08/23 03:33:06;;;;;;;;;;;25.80;59.60;;;;;;1571663;75;1523;-57
2023/08/23 03:35:08;;;;;;;;;;;25.80;59.60;;;;;;1576197;75;758;-58
2023/08/23 03:37:10;;;;;;;;;;;25.80;59.70;;;;;;1568530;75;761;-57
2023/08/23 03:39:12;;;;;;;;;;;25.80;59.70;;;;;;1575631;74;1104;-55
2023/08/23 03:41:14;;;;;;;;;;;25.80;59.70;;;;;;1581217;74;1938;-55
2023/08/23 03:43:16;;;;;;;;;;;25.70;59.70;;;;;;1577430;75;884;-55
2023/08/23 03:45:18;;;;;;;;;;;25.80;59.70;;;;;;1579731;75;693;-56
2023/08/23 03:47:20;;;;;;;;;;;25.80;59.70;;;;;;1570263;75;1487;-54
2023/08/23 03:49:21;;;;;;;;;;;25.80;59.70;;;;;;1582331;73;1118;-56
2023/08/23 03:51:23;;;;;;;;;;;25.70;59.70;;;;;;1575645;75;752;-57
2023/08/23 03:53:25;;;;;;;;;;;25.70;59.70;;;;;;1567318;75;790;-55
2023/08/23 03:55:27;;;;;;;;;;;25.80;59.70;;;;;;1583576;74;887;-57
2023/08/23 03:57:29;;;;;;;;;;;25.70;59.80;;;;;;1580972;75;784;-57
2023/08/23 03:59:31;;;;;;;;;;;25.80;59.70;;;;;;1571573;74;1180;-57
2023/08/23 04:01:33;;;;;;;;;;;25.80;59.80;;;;;;1583828;73;1915;-56
2023/08/23 04:03:35;;;;;;;;;;;25.70;59.70;;;;;;1569169;75;676;-56
2023/08/23 04:05:40;;;;;;;;;;;25.70;59.80;;;;;;1577919;75;711;-56
2023/08/23 04:07:42;;;;;;;;;;;25.80;59.70;;;;;;1574762;74;823;-56
2023/08/23 04:09:44;;;;;;;;;;;25.70;59.80;;;;;;1575196;73;1141;-56
2023/08/23 04:11:45;;;;;;;;;;;25.80;59.80;;;;;;1566817;74;690;-53
2023/08/23 04:13:47;;;;;;;;;;;25.80;59.80;;;;;;1564448;75;798;-56
2023/08/23 04:15:49;;;;;;;;;;;25.80;59.80;;;;;;1577574;74;1595;-55
2023/08/23 04:17:51;;;;;;;;;;;25.80;59.80;;;;;;1574371;75;808;-54
2023/08/23 04:19:53;;;;;;;;;;;25.80;59.80;;;;;;1578578;74;1140;-55
2023/08/23 04:21:55;;;;;;;;;;;25.70;59.80;;;;;;1575567;75;1939;-57
2023/08/23 04:23:57;;;;;;;;;;;25.80;59.80;;;;;;1568263;75;746;-55
2023/08/23 04:25:59;;;;;;;;;;;25.70;59.80;;;;;;1585900;74;827;-54
2023/08/23 04:28:00;;;;;;;;;;;25.70;59.70;;;;;;1565025;75;811;-57
2023/08/23 04:30:03;;;;;;;;;;;25.70;59.80;;;;;;1572558;73;1548;-56
2023/08/23 04:32:09;;;;;;;;;;;25.80;59.70;;;;;;1581137;75;706;-56
2023/08/23 04:34:08;;;;;;;;;;;25.70;59.70;;;;;;1573973;75;1565;-56
2023/08/23 04:36:10;;;;;;;;;;;25.80;59.70;;;;;;1575288;75;707;-57
2023/08/23 04:38:13;;;;;;;;;;;25.80;59.80;;;;;;1575533;75;654;-56
2023/08/23 04:40:15;;;;;;;;;;;25.80;59.80;;;;;;1579076;74;1100;-57
2023/08/23 04:42:17;;;;;;;;;;;25.70;59.70;;;;;;1564285;75;1935;-56
2023/08/23 04:44:19;;;;;;;;;;;25.80;59.70;;;;;;1564437;73;1579;-55
2023/08/23 04:46:20;;;;;;;;;;;25.70;59.80;;;;;;1575942;75;793;-56
2023/08/23 04:48:23;;;;;;;;;;;25.70;59.90;;;;;;1577332;75;772;-54
2023/08/23 04:50:25;;;;;;;;;;;25.80;59.80;;;;;;1579816;73;1144;-55
2023/08/23 04:52:28;;;;;;;;;;;25.80;59.80;;;;;;1577701;75;771;-54
2023/08/23 04:54:29;;;;;;;;;;;25.70;59.90;;;;;;1582268;74;817;-55
2023/08/23 04:56:31;;;;;;;;;;;25.70;59.90;;;;;;1574283;75;714;-55
2023/08/23 04:58:33;;;;;;;;;;;25.70;59.80;;;;;;1577595;75;1374;-54
2023/08/23 05:00:35;;;;;;;;;;;25.70;59.90;;;;;;1577834;74;1115;-55
2023/08/23 05:02:37;;;;;;;;;;;25.70;59.80;;;;;;1570064;75;1938;-56
2023/08/23 05:04:39;;;;;;;;;;;25.70;59.80;;;;;;1564232;75;782;-55
2023/08/23 05:06:41;;;;;;;;;;;25.70;59.90;;;;;;1568077;75;726;-57
2023/08/23 05:08:43;;;;;;;;;;;25.70;59.90;;;;;;1575138;75;717;-57
2023/08/23 05:10:44;;;;;;;;;;;25.70;59.80;;;;;;1580886;73;1110;-57
2023/08/23 05:12:46;;;;;;;;;;;25.70;59.90;;;;;;1577424;74;1534;-55
2023/08/23 05:14:48;;;;;;;;;;;25.70;59.80;;;;;;1575142;75;937;-57
2023/08/23 05:16:50;;;;;;;;;;;25.70;59.90;;;;;;1570767;75;731;-57
2023/08/23 05:18:52;;;;;;;;;;;25.80;59.90;;;;;;1564508;75;764;-55
2023/08/23 05:21:00;;;;;;;;;;;25.70;60.00;;;;;;1567989;75;771;-57
2023/08/23 05:23:00;;;;;;;;;;;25.80;59.90;;;;;;1571634;75;1910;-57
2023/08/23 05:25:02;;;;;;;;;;;25.80;60.00;;;;;;1580087;74;794;-57
2023/08/23 05:27:04;;;;;;;;;;;25.70;60.00;;;;;;1563688;73;1567;-57
2023/08/23 05:29:06;;;;;;;;;;;25.70;60.00;;;;;;1582090;74;1109;-58
2023/08/23 05:31:08;;;;;;;;;;;25.70;60.00;;;;;;1575703;75;714;-55
2023/08/23 05:33:10;;;;;;;;;;;25.70;60.00;;;;;;1579044;75;808;-54
2023/08/23 05:35:12;;;;;;;;;;;25.80;60.00;;;;;;1575347;75;825;-54
2023/08/23 05:37:13;;;;;;;;;;;25.80;60.00;;;;;;1582815;75;674;-56
2023/08/23 05:39:15;;;;;;;;;;;25.80;60.00;;;;;;1583741;74;1192;-56
2023/08/23 05:41:17;;;;;;;;;;;25.90;59.80;;;;;;1582538;75;1933;-56
2023/08/23 05:43:19;;;;;;;;;;;25.80;59.80;;;;;;1576938;75;667;-56
2023/08/23 05:45:22;;;;;;;;;;;25.90;59.90;;;;;;1578759;75;1078;-57
2023/08/23 05:47:24;;;;;;;;;;;25.90;60.00;;;;;;1573578;75;738;-57
2023/08/23 05:49:26;;;;;;;;;;;25.80;60.20;;;;;;1578918;75;1152;-57
2023/08/23 05:51:28;;;;;;;;;;;25.90;60.20;;;;;;1580786;75;698;-57
2023/08/23 05:53:30;;;;;;;;;;;25.90;60.20;;;;;;1574237;74;748;-57
2023/08/23 05:55:32;;;;;;;;;;;25.90;60.40;;;;;;1576182;74;1582;-55
2023/08/23 05:57:34;;;;;;;;;;;25.80;60.30;;;;;;1575556;75;710;-57
2023/08/23 05:59:36;;;;;;;;;;;25.80;60.50;;;;;;1579329;73;1152;-55
2023/08/23 06:01:38;;;;;;;;;;;25.80;60.50;;;;;;1572990;75;1937;-56
2023/08/23 06:03:40;;;;;;;;;;;25.90;60.50;;;;;;1559782;75;715;-57
2023/08/23 06:05:42;;;;;;;;;;;25.90;60.30;;;;;;1559787;75;711;-57
2023/08/23 06:07:44;;;;;;;;;;;25.90;60.40;;;;;;1575152;74;790;-55
2023/08/23 06:09:46;;;;;;;;;;;25.90;60.30;;;;;;1570006;73;2773;-57
2023/08/23 06:11:48;;;;;;;;;;;25.90;60.30;;;;;;1575408;75;726;-57
2023/08/23 06:13:50;;;;;;;;;;;26.00;60.80;;;;;;1578864;75;701;-57
2023/08/23 06:15:52;;;;;;;;;;;26.00;60.70;;;;;;1580931;75;677;-55
2023/08/23 06:17:54;;;;;;;;;;;26.00;60.50;;;;;;1566871;75;654;-57
2023/08/23 06:19:56;;;;;;;;;;;26.10;60.50;;;;;;1581580;73;1087;-57
2023/08/23 06:21:58;;;;;;;;;;;26.10;60.50;;;;;;1574464;74;1919;-57
2023/08/23 06:24:00;;;;;;;;;;;26.20;60.40;;;;;;1565057;75;710;-54
2023/08/23 06:26:02;;;;;;;;;;;26.20;60.20;;;;;;1582761;75;800;-58
2023/08/23 06:28:04;;;;;;;;;;;26.30;60.30;;;;;;1570279;75;801;-55
2023/08/23 06:30:06;;;;;;;;;;;26.30;60.40;;;;;;1576197;73;1149;-55
2023/08/23 06:32:08;;;;;;;;;;;26.40;60.50;;;;;;1565936;75;716;-56
2023/08/23 06:34:10;;;;;;;;;;;26.40;60.50;;;;;;1570075;75;710;-54
2023/08/23 06:36:12;;;;;;;;;;;26.50;60.20;;;;;;1565212;75;1525;-57
2023/08/23 06:38:15;;;;;;;;;;;26.50;60.20;;;;;;1583219;74;715;-57
2023/08/23 06:40:17;;;;;;;;;;;26.50;60.20;;;;;;1578055;74;1140;-57
2023/08/23 06:42:19;;;;;;;;;;;26.50;60.00;;;;;;1572535;75;1939;-56
2023/08/23 06:44:21;;;;;;;;;;;26.50;59.80;;;;;;1571367;75;702;-54
2023/08/23 06:46:23;;;;;;;;;;;26.60;59.70;;;;;;1570332;75;736;-57
2023/08/23 06:48:25;;;;;;;;;;;26.60;59.40;;;;;;1576271;75;736;-54
2023/08/23 06:50:27;;;;;;;;;;;26.60;59.30;;;;;;1571303;73;1488;-57
2023/08/23 06:52:29;;;;;;;;;;;26.60;59.20;;;;;;1573708;74;710;-57
2023/08/23 06:54:31;;;;;;;;;;;26.60;59.20;;;;;;1577803;75;759;-56
2023/08/23 06:56:33;;;;;;;;;;;26.60;59.20;;;;;;1575947;75;676;-56
2023/08/23 06:58:35;;;;;;;;;;;26.60;59.10;;;;;;1581323;75;713;-57
2023/08/23 07:00:37;;;;;;;;;;;26.60;58.90;;;;;;1576365;73;1128;-56
2023/08/23 07:02:39;;;;;;;;;;;26.70;59.00;;;;;;1564753;75;1926;-54
2023/08/23 07:04:41;;;;;;;;;;;26.70;58.90;;;;;;1571751;74;1474;-54
2023/08/23 07:06:43;;;;;;;;;;;26.70;59.00;;;;;;1583243;74;794;-57
2023/08/23 07:08:44;;;;;;;;;;;26.70;58.90;;;;;;1564033;75;797;-55
2023/08/23 07:10:46;;;;;;;;;;;26.70;59.00;;;;;;1570083;75;1124;-57
2023/08/23 07:12:48;;;;;;;;;;;26.60;59.10;;;;;;1581214;75;792;-58
2023/08/23 07:14:50;;;;;;;;;;;26.60;59.00;;;;;;1574844;75;748;-56
2023/08/23 07:16:52;;;;;;;;;;;26.60;59.00;;;;;;1566799;75;749;-55
2023/08/23 07:18:54;;;;;;;;;;;26.60;59.00;;;;;;1541500;75;1541;-54
2023/08/23 07:20:57;;;;;;;;;;;26.50;59.00;;;;;;1526495;76;735;-56
2023/08/23 07:22:58;;;;;;;;;;;26.50;58.90;;;;;;1512389;78;1930;-56
2023/08/23 07:25:00;;;;;;;;;;;26.50;59.00;;;;;;1547862;75;716;-55
2023/08/23 07:27:02;;;;;;;;;;;26.50;59.00;;;;;;1528784;75;751;-57
2023/08/23 07:29:05;;;;;;;;;;;26.50;58.90;;;;;;1555595;74;1135;-56
2023/08/23 07:31:06;;;;;;;;;;;26.60;58.90;;;;;;1545434;75;788;-56
2023/08/23 07:33:08;;;;;;;;;;;26.50;58.90;;;;;;1542374;75;1411;-55
2023/08/23 07:35:10;;;;;;;;;;;26.50;59.00;;;;;;1531709;77;709;-57
2023/08/23 07:37:12;;;;;;;;;;;26.50;59.00;;;;;;1552650;75;724;-56
2023/08/23 07:39:14;;;;;;;;;;;26.50;58.90;;;;;;1546271;75;1182;-55
2023/08/23 07:41:16;;;;;;;;;;;26.50;58.90;;;;;;1560372;75;697;-57
2023/08/23 07:43:18;;;;;;;;;;;26.50;58.90;;;;;;1526549;77;1940;-55
2023/08/23 07:45:21;;;;;;;;;;;26.50;58.90;;;;;;1529302;76;678;-54
2023/08/23 07:47:23;;;;;;;;;;;26.50;58.90;;;;;;1526997;76;1263;-55
2023/08/23 07:49:24;;;;;;;;;;;26.50;58.80;;;;;;1545169;75;1133;-55
2023/08/23 07:51:26;;;;;;;;;;;26.50;58.90;;;;;;1519378;76;829;-54
2023/08/23 07:53:29;;;;;;;;;;;26.60;58.80;;;;;;1544221;75;1073;-57
2023/08/23 07:55:31;;;;;;;;;;;26.60;58.80;;;;;;1531424;76;718;-54
2023/08/23 07:57:33;;;;;;;;;;;26.50;58.90;;;;;;1512039;78;782;-57
2023/08/23 07:59:35;;;;;;;;;;;26.50;58.90;;;;;;1523593;76;1228;-54
2023/08/23 08:01:37;;;;;;;;;;;26.60;58.90;;;;;;1512407;76;1549;-57
2023/08/23 08:03:39;;;;;;;;;;;26.60;58.90;;;;;;1541566;76;1924;-57
2023/08/23 08:05:41;;;;;;;;;;;26.60;58.90;;;;;;1520028;76;731;-57
2023/08/23 08:07:43;;;;;;;;;;;26.50;58.90;;;;;;1523939;76;667;-57
2023/08/23 08:09:45;;;;;;;;;;;26.50;58.80;;;;;;1535075;76;1157;-57
2023/08/23 08:11:47;;;;;;;;;;;26.50;58.90;;;;;;1526488;76;759;-57
2023/08/23 08:13:49;;;;;;;;;;;26.50;59.00;;;;;;1538917;75;735;-55
2023/08/23 08:15:51;;;;;;;;;;;26.60;59.00;;;;;;1539423;75;1521;-55
2023/08/23 08:17:53;;;;;;;;;;;26.50;59.00;;;;;;1562066;75;712;-57
2023/08/23 08:19:55;;;;;;;;;;;26.60;59.10;;;;;;1552446;75;1141;-56
2023/08/23 08:21:57;;;;;;;;;;;26.60;58.90;;;;;;1546330;75;763;-54
2023/08/23 08:23:59;;;;;;;;;;;26.60;59.10;;;;;;1538972;75;1947;-57
2023/08/23 08:26:01;;;;;;;;;;;26.60;59.00;;;;;;1551915;75;853;-57
2023/08/23 08:28:03;;;;;;;;;;;26.60;59.00;;;;;;1550732;75;762;-56
2023/08/23 08:30:05;;;;;;;;;;;26.60;59.00;;;;;;1539021;75;1635;-58
2023/08/23 08:32:07;;;;;;;;;;;26.60;58.90;;;;;;1528782;77;763;-57
2023/08/23 08:34:09;;;;;;;;;;;26.60;59.10;;;;;;1551290;75;795;-57
2023/08/23 08:36:12;;;;;;;;;;;26.60;59.00;;;;;;1525543;78;793;-57
2023/08/23 08:38:14;;;;;;;;;;;26.60;59.10;;;;;;1537267;75;693;-54
2023/08/23 08:40:16;;;;;;;;;;;26.60;59.10;;;;;;1527334;77;1168;-56
2023/08/23 08:42:18;;;;;;;;;;;26.60;59.00;;;;;;1534361;75;734;-56
2023/08/23 08:44:20;;;;;;;;;;;26.60;59.10;;;;;;1524557;78;1942;-57
2023/08/23 08:46:22;;;;;;;;;;;26.70;59.20;;;;;;1542694;75;731;-57
2023/08/23 08:48:24;;;;;;;;;;;26.60;59.20;;;;;;1524145;76;810;-57
2023/08/23 08:50:26;;;;;;;;;;;26.60;59.20;;;;;;1528432;76;1137;-56
2023/08/23 08:52:28;;;;;;;;;;;26.60;59.20;;;;;;1525584;76;693;-57
2023/08/23 08:54:30;;;;;;;;;;;26.60;59.20;;;;;;1533096;75;712;-57
2023/08/23 08:56:32;;;;;;;;;;;26.70;59.20;;;;;;1541146;75;1548;-57
2023/08/23 08:58:34;;;;;;;;;;;26.50;59.20;;;;;;1515807;78;782;-58
2023/08/23 09:00:36;;;;;;;;;;;26.60;59.20;;;;;;1519239;76;1143;-56
2023/08/23 09:02:38;;;;;;;;;;;26.60;59.20;;;;;;1555400;75;1943;-54
2023/08/23 09:04:40;;;;;;;;;;;26.60;59.20;;;;;;1545874;75;746;-56
2023/08/23 09:06:42;;;;;;;;;;;26.70;59.20;;;;;;1556243;75;740;-57
2023/08/23 09:08:44;;;;;;;;;;;26.60;59.30;;;;;;1543254;75;732;-57
2023/08/23 09:10:46;;;;;;;;;;;26.60;59.40;;;;;;1542570;75;1538;-57
2023/08/23 09:12:48;;;;;;;;;;;26.50;59.20;;;;;;1543978;75;662;-57
2023/08/23 09:14:50;;;;;;;;;;;26.60;59.20;;;;;;1541116;75;751;-57
2023/08/23 09:16:52;;;;;;;;;;;26.50;59.20;;;;;;1539018;75;722;-57
2023/08/23 09:18:54;;;;;;;;;;;26.60;59.20;;;;;;1550660;75;1137;-57
2023/08/23 09:20:56;;;;;;;;;;;26.50;59.10;;;;;;1544140;76;1193;-57
2023/08/23 09:22:58;;;;;;;;;;;26.50;59.10;;;;;;1548026;75;1950;-56
2023/08/23 09:25:04;;;;;;;;;;;26.60;59.10;;;;;;1541608;75;1495;-54
2023/08/23 09:27:06;;;;;;;;;;;26.60;59.00;;;;;;1541295;75;1643;-55
2023/08/23 09:29:08;;;;;;;;;;;26.50;58.90;;;;;;1540801;75;1128;-54
2023/08/23 09:31:10;;;;;;;;;;;26.70;58.90;;;;;;1546615;75;745;-57
2023/08/23 09:33:12;;;;;;;;;;;26.60;58.90;;;;;;1552129;75;769;-56
2023/08/23 09:35:14;;;;;;;;;;;26.50;58.90;;;;;;1534833;75;724;-56
2023/08/23 09:37:17;;;;;;;;;;;26.60;58.90;;;;;;1561803;75;799;-57
2023/08/23 09:39:19;;;;;;;;;;;26.50;58.90;;;;;;1542425;75;1343;-54
2023/08/23 09:41:22;;;;;;;;;;;26.60;58.90;;;;;;1525010;76;765;-54
2023/08/23 09:43:24;;;;;;;;;;;26.60;58.90;;;;;;1545775;75;1927;-57
2023/08/23 09:45:26;;;;;;;;;;;26.60;58.90;;;;;;1548507;75;754;-57
2023/08/23 09:47:29;;;;;;;;;;;26.50;58.90;;;;;;1555217;75;703;-56
2023/08/23 09:49:32;;;;;;;;;;;26.60;58.90;;;;;;1543472;75;1199;-56
2023/08/23 09:51:35;;;;;;;;;;;26.60;58.90;;;;;;1538829;75;998;-57
2023/08/23 09:53:38;;;;;;;;;;;26.50;59.00;;;;;;1545475;75;1522;-55
2023/08/23 09:55:40;;;;;;;;;;;26.50;59.00;;;;;;1542140;75;674;-57
2023/08/23 09:57:42;;;;;;;;;;;26.50;58.90;;;;;;1540087;75;711;-57
2023/08/23 09:59:43;;;;;;;;;;;26.50;58.90;;;;;;1545911;74;1159;-55
2023/08/23 10:01:45;;;;;;;;;;;26.50;58.90;;;;;;1537372;75;716;-57
2023/08/23 10:03:47;;;;;;;;;;;26.50;59.00;;;;;;1520075;78;1916;-56
2023/08/23 10:05:50;;;;;;;;;;;26.60;59.00;;;;;;1512428;76;664;-55
2023/08/23 10:07:54;;;;;;;;;;;26.60;58.90;;;;;;1513982;76;1413;-53
2023/08/23 10:09:56;;;;;;;;;;;26.50;58.90;;;;;;1540239;76;1157;-57
2023/08/23 10:12:00;;;;;;;;;;;26.50;58.90;;;;;;1523914;76;709;-57
2023/08/23 10:14:01;;;;;;;;;;;26.70;58.90;;;;;;1521589;78;1656;-56
2023/08/23 10:16:03;;;;;;;;;;;26.50;58.90;;;;;;1527318;76;764;-55
2023/08/23 10:18:07;;;;;;;;;;;26.60;59.00;;;;;;1526590;76;705;-57
2023/08/23 10:20:09;;;;;;;;;;;26.50;58.90;;;;;;1525814;76;1104;-57
2023/08/23 10:22:11;;;;;;;;;;;26.50;59.00;;;;;;1559911;75;1285;-56
2023/08/23 10:24:13;;;;;;;;;;;26.60;59.00;;;;;;1545852;75;1934;-56
2023/08/23 10:26:19;;;;;;;;;;;26.60;59.00;;;;;;1546069;75;759;-55
2023/08/23 10:28:21;;;;;;;;;;;26.50;59.00;;;;;;1531329;76;699;-54
2023/08/23 10:30:29;;;;;;;;;;;26.50;59.00;;;;;;1590482;72;1106;-56
2023/08/23 10:32:32;;;;;;;;;;;26.60;59.00;;;;;;1560772;75;699;-55
2023/08/23 10:34:36;;;;;;;;;;;26.50;59.00;;;;;;1564100;75;1207;-54
2023/08/23 10:36:38;;;;;;;;;;;26.50;59.00;;;;;;1554993;75;1663;-53
2023/08/23 10:38:40;;;;;;;;;;;26.50;59.00;;;;;;1545314;75;811;-53
2023/08/23 10:40:46;;;;;;;;;;;26.50;59.00;;;;;;1569287;75;1145;-55
2023/08/23 10:42:49;;;;;;;;;;;26.50;59.00;;;;;;1575854;75;722;-56
2023/08/23 10:44:55;;;;;;;;;;;26.60;59.10;;;;;;1565303;75;708;-52
2023/08/23 10:46:58;;;;;;;;;;;26.60;59.10;;;;;;1569462;74;2054;-56
2023/08/23 10:49:00;;;;;;;;;;;26.50;59.00;;;;;;1547348;75;1931;-54
2023/08/23 10:51:02;;;;;;;;;;;26.50;59.00;;;;;;1569141;75;920;-54
2023/08/23 10:53:04;;;;;;;;;;;26.60;59.00;;;;;;1562651;75;809;-55
2023/08/23 10:55:06;;;;;;;;;;;26.50;59.00;;;;;;1563256;75;735;-55
2023/08/23 10:57:09;;;;;;;;;;;26.50;59.00;;;;;;1570878;75;794;-55
2023/08/23 10:59:11;;;;;;;;;;;26.50;58.90;;;;;;1564697;75;1079;-55
2023/08/23 11:01:13;;;;;;;;;;;26.40;58.90;;;;;;1562653;74;758;-55
2023/08/23 11:03:14;;;;;;;;;;;26.50;58.90;;;;;;1550949;75;1403;-53
2023/08/23 11:05:17;;;;;;;;;;;26.50;58.90;;;;;;1557327;75;755;-53
2023/08/23 11:07:20;;;;;;;;;;;26.50;58.90;;;;;;1553044;75;726;-55
2023/08/23 11:09:22;;;;;;;;;;;26.50;58.80;;;;;;1528587;76;1948;-53
2023/08/23 11:11:28;;;;;;;;;;;26.50;58.80;;;;;;1524184;76;790;-53
2023/08/23 11:13:31;;;;;;;;;;;26.40;58.80;;;;;;1569445;75;1379;-55
2023/08/23 11:15:33;;;;;;;;;;;26.50;58.70;;;;;;1551526;75;763;-55
2023/08/23 11:17:35;;;;;;;;;;;26.50;58.60;;;;;;1574530;75;1446;-55
2023/08/23 11:19:38;;;;;;;;;;;26.40;58.60;;;;;;1578932;75;1112;-53
2023/08/23 11:21:40;;;;;;;;;;;26.50;58.80;;;;;;1555158;75;793;-54
2023/08/23 11:23:42;;;;;;;;;;;26.50;58.60;;;;;;1566797;75;811;-54
2023/08/23 11:25:44;;;;;;;;;;;26.50;58.60;;;;;;1565762;75;676;-55
2023/08/23 11:27:45;;;;;;;;;;;26.50;58.60;;;;;;1554696;75;612;-55
2023/08/23 11:29:47;;;;;;;;;;;26.50;58.50;;;;;;1552075;74;1951;-53
2023/08/23 11:31:52;;;;;;;;;;;26.50;58.50;;;;;;1560685;75;1525;-56
2023/08/23 11:33:54;;;;;;;;;;;26.50;58.40;;;;;;1542023;75;784;-56
2023/08/23 11:35:56;;;;;;;;;;;26.50;58.40;;;;;;1544721;75;737;-55
2023/08/23 11:37:58;;;;;;;;;;;26.50;58.40;;;;;;1557823;75;801;-53
2023/08/23 11:40:04;;;;;;;;;;;26.50;58.40;;;;;;1545388;75;1203;-55
2023/08/23 11:42:04;;;;;;;;;;;26.50;58.60;;;;;;1562221;75;1615;-56
2023/08/23 11:44:09;;;;;;;;;;;26.50;58.50;;;;;;1547747;75;736;-55
2023/08/23 11:46:11;;;;;;;;;;;26.50;58.40;;;;;;1540017;75;1597;-53
2023/08/23 11:48:13;;;;;;;;;;;26.50;58.30;;;;;;1552045;75;711;-55
2023/08/23 11:50:15;;;;;;;;;;;26.50;58.30;;;;;;1545114;75;1947;-55
2023/08/23 11:52:17;;;;;;;;;;;26.50;58.40;;;;;;1553835;75;788;-57
2023/08/23 11:54:22;;;;;;;;;;;26.50;58.30;;;;;;1547653;75;753;-53
2023/08/23 11:56:24;;;;;;;;;;;26.50;58.40;;;;;;1564627;75;1673;-55
2023/08/23 11:58:26;;;;;;;;;;;26.50;58.30;;;;;;1559918;75;712;-53
2023/08/23 12:00:28;;;;;;;;;;;26.50;58.30;;;;;;1559100;74;1593;-56
2023/08/23 12:02:30;;;;;;;;;;;26.50;58.30;;;;;;1548600;75;722;-55
2023/08/23 12:04:32;;;;;;;;;;;26.50;58.30;;;;;;1541103;75;750;-55
2023/08/23 12:06:34;;;;;;;;;;;26.50;58.40;;;;;;1552504;75;749;-56
2023/08/23 12:08:36;;;;;;;;;;;26.40;58.50;;;;;;1551301;75;678;-55